Time;durP1;ratioP1;P1;durP2;ratioP2;P2;SDS_P1;SDS_P2;PMS_P1;PMS_P2;Temp;Humidity;BMP_temperature;BMP_pressure;BME280_temperature;BME280_humidity;BME280_pressure;Samples;Min_cycle;Max_cycle;Signal;HPM_P1;HPM_P2
2023/02/04 00:00:57;;;;;;;5.87;2.20;;;9.80;45.60;;;;;;10432198;28;20232;-70
2023/02/04 00:06:02;;;;;;;7.47;2.50;;;9.70;45.10;;;;;;10438998;28;20651;-70
2023/02/04 00:11:05;;;;;;;5.47;2.47;;;9.70;45.20;;;;;;10429242;28;20220;-70
2023/02/04 00:16:09;;;;;;;4.87;2.33;;;9.60;45.80;;;;;;10423949;28;20225;-70
2023/02/04 00:21:13;;;;;;;7.17;2.43;;;9.60;44.90;;;;;;10427133;28;20248;-70
2023/02/04 00:26:16;;;;;;;7.90;2.40;;;9.60;44.90;;;;;;10426805;28;20312;-72
2023/02/04 00:31:19;;;;;;;8.37;2.43;;;9.60;44.80;;;;;;10426918;28;20764;-69
2023/02/04 00:36:24;;;;;;;5.73;2.40;;;9.60;44.50;;;;;;10430258;28;20229;-68
2023/02/04 00:41:27;;;;;;;9.17;2.30;;;9.50;44.40;;;;;;10433155;28;20241;-69
2023/02/04 00:46:30;;;;;;;9.37;2.40;;;9.50;44.50;;;;;;10439852;28;20225;-70
2023/02/04 00:51:35;;;;;;;7.17;2.53;;;9.50;44.50;;;;;;10444272;28;21153;-68
2023/02/04 00:56:38;;;;;;;6.30;2.20;;;9.60;44.10;;;;;;10435225;28;20724;-70
2023/02/04 01:01:41;;;;;;;5.60;2.10;;;9.50;44.20;;;;;;10449531;28;20224;-70
2023/02/04 01:06:45;;;;;;;6.17;2.53;;;9.50;44.30;;;;;;10440927;28;20294;-70
2023/02/04 01:11:49;;;;;;;6.90;2.27;;;9.50;44.20;;;;;;10436123;28;20232;-71
2023/02/04 01:16:52;;;;;;;7.90;2.30;;;9.60;44.40;;;;;;10445608;28;20224;-70
2023/02/04 01:21:56;;;;;;;7.17;2.80;;;9.60;44.00;;;;;;10436207;28;20231;-69
2023/02/04 01:26:59;;;;;;;6.80;2.37;;;9.50;43.70;;;;;;10448679;28;20732;-70
2023/02/04 01:32:02;;;;;;;9.93;3.10;;;9.50;44.10;;;;;;10444829;28;20614;-68
2023/02/04 01:37:07;;;;;;;6.97;2.20;;;9.50;44.10;;;;;;10437021;28;20240;-74
2023/02/04 01:42:11;;;;;;;6.50;2.73;;;9.50;44.00;;;;;;10437170;28;21049;-73
2023/02/04 01:47:14;;;;;;;7.40;2.50;;;9.60;44.10;;;;;;10444348;28;20246;-68
2023/02/04 01:52:19;;;;;;;7.30;2.80;;;9.60;44.20;;;;;;10442078;28;20228;-68
2023/02/04 02:02:44;;;;;;;9.60;2.90;;;9.60;44.30;;;;;;3011547;26;20751;-79
2023/02/04 02:07:51;;;;;;;6.47;2.33;;;9.60;43.00;;;;;;10504897;28;20238;-78
2023/02/04 02:12:55;;;;;;;6.83;2.23;;;9.60;43.40;;;;;;10500099;28;20224;-79
2023/02/04 02:17:59;;;;;;;7.13;2.63;;;9.50;43.70;;;;;;10501804;28;20258;-79
2023/02/04 02:23:11;;;;;;;7.67;2.80;;;9.50;43.40;;;;;;10504762;28;20634;-79
2023/02/04 02:28:18;;;;;;;7.27;2.47;;;9.50;42.10;;;;;;10503973;28;20232;-79
2023/02/04 02:33:21;;;;;;;5.80;2.33;;;9.50;42.10;;;;;;10518680;28;20237;-79
2023/02/04 02:38:25;;;;;;;7.20;2.30;;;9.50;42.60;;;;;;10500276;28;20239;-79
2023/02/04 02:43:30;;;;;;;9.50;2.90;;;9.40;42.60;;;;;;10503252;28;20314;-79
2023/02/04 02:48:33;;;;;;;10.00;2.53;;;9.40;42.20;;;;;;10505707;28;20723;-79
2023/02/04 02:53:36;;;;;;;9.20;2.50;;;9.40;42.50;;;;;;10503803;28;20224;-79
2023/02/04 02:58:41;;;;;;;5.70;2.47;;;9.30;42.40;;;;;;10498981;28;20243;-79
2023/02/04 03:03:47;;;;;;;6.80;2.40;;;9.30;42.70;;;;;;10454724;28;1185208;-79
2023/02/04 03:08:54;;;;;;;8.90;2.60;;;9.20;42.50;;;;;;10489995;28;20240;-79
2023/02/04 03:14:01;;;;;;;5.37;2.23;;;9.20;42.40;;;;;;10505140;28;20769;-79
2023/02/04 03:19:06;;;;;;;10.33;2.50;;;9.20;42.00;;;;;;10498976;28;20245;-79
2023/02/04 03:24:09;;;;;;;6.17;2.40;;;9.20;42.20;;;;;;10505360;28;20228;-79
2023/02/04 03:29:14;;;;;;;7.70;2.50;;;9.20;42.60;;;;;;10502246;28;20311;-79
2023/02/04 03:34:17;;;;;;;9.10;2.53;;;9.10;42.20;;;;;;10501131;28;20254;-79
2023/02/04 03:39:20;;;;;;;9.07;2.37;;;9.10;42.60;;;;;;10503393;28;20235;-79
2023/02/04 03:44:25;;;;;;;6.77;2.53;;;9.20;42.60;;;;;;10503729;28;20306;-79
2023/02/04 03:49:31;;;;;;;7.40;3.00;;;9.10;42.20;;;;;;10488669;28;20232;-79
2023/02/04 03:54:34;;;;;;;8.37;2.30;;;9.10;42.50;;;;;;10504245;28;20304;-79
2023/02/04 03:59:38;;;;;;;8.27;2.70;;;9.10;42.60;;;;;;10505121;28;20228;-79
2023/02/04 04:04:42;;;;;;;10.17;2.50;;;9.10;42.40;;;;;;10495774;28;20511;-79
2023/02/04 04:09:45;;;;;;;8.53;2.47;;;9.10;42.60;;;;;;10496007;28;20232;-79
2023/02/04 04:14:49;;;;;;;6.70;2.40;;;9.20;42.70;;;;;;10501437;28;20237;-79
2023/02/04 04:19:52;;;;;;;5.47;2.27;;;9.20;42.40;;;;;;10508985;28;20248;-79
2023/02/04 04:24:56;;;;;;;8.93;2.53;;;9.10;42.70;;;;;;10500760;28;20228;-79
2023/02/04 04:30:00;;;;;;;6.87;2.20;;;9.10;42.60;;;;;;10500073;28;20238;-79
2023/02/04 04:35:04;;;;;;;9.03;2.93;;;9.10;42.60;;;;;;10508380;28;20238;-79
2023/02/04 04:40:08;;;;;;;5.67;2.30;;;9.10;42.70;;;;;;10488561;28;20240;-79
2023/02/04 04:45:14;;;;;;;8.37;2.43;;;9.00;42.90;;;;;;10500199;28;20240;-79
2023/02/04 04:50:17;;;;;;;7.43;2.60;;;9.10;43.00;;;;;;10494051;28;20228;-79
2023/02/04 04:55:20;;;;;;;7.93;3.00;;;9.10;42.90;;;;;;10512872;28;20583;-79
2023/02/04 05:00:25;;;;;;;8.43;2.50;;;9.00;42.80;;;;;;10507617;28;20296;-79
2023/02/04 05:05:28;;;;;;;8.30;2.73;;;9.00;42.80;;;;;;10503845;28;20236;-79
2023/02/04 05:10:31;;;;;;;8.00;2.90;;;8.90;42.80;;;;;;10514518;28;20238;-79
2023/02/04 05:15:36;;;;;;;9.03;2.87;;;8.90;42.80;;;;;;10512936;28;20260;-79
2023/02/04 05:20:39;;;;;;;7.63;2.47;;;8.80;42.60;;;;;;10511213;28;20232;-79
2023/02/04 05:25:43;;;;;;;6.70;2.53;;;8.80;43.10;;;;;;10507589;28;20735;-79
2023/02/04 05:30:47;;;;;;;7.33;2.40;;;8.70;42.80;;;;;;10497384;28;20240;-79
2023/02/04 05:35:50;;;;;;;6.27;2.27;;;8.80;43.00;;;;;;10502162;28;20256;-79
2023/02/04 05:40:54;;;;;;;7.80;2.40;;;8.70;43.00;;;;;;10494971;28;20240;-79
2023/02/04 05:45:58;;;;;;;6.43;2.30;;;8.70;43.00;;;;;;10496259;28;20224;-79
2023/02/04 05:51:01;;;;;;;8.00;2.73;;;8.70;42.70;;;;;;10506327;28;20704;-79
2023/02/04 05:56:05;;;;;;;6.20;2.27;;;8.70;42.90;;;;;;10500473;28;20239;-79
2023/02/04 06:01:16;;;;;;;6.17;2.20;;;8.70;42.90;;;;;;10504961;28;20240;-79
2023/02/04 06:06:23;;;;;;;8.63;2.60;;;8.70;42.70;;;;;;10500261;28;20300;-79
2023/02/04 06:11:26;;;;;;;6.73;2.37;;;8.70;42.70;;;;;;10504556;28;20239;-79
2023/02/04 06:16:31;;;;;;;6.47;2.20;;;8.70;42.70;;;;;;10500128;28;20233;-79
2023/02/04 06:21:34;;;;;;;7.87;2.60;;;8.70;42.60;;;;;;10504420;28;20228;-79
2023/02/04 06:26:37;;;;;;;7.60;2.20;;;8.70;42.60;;;;;;10505645;28;20296;-79
2023/02/04 06:31:43;;;;;;;7.63;2.60;;;8.70;42.60;;;;;;10502153;28;20232;-79
2023/02/04 06:36:46;;;;;;;5.03;1.97;;;8.70;42.50;;;;;;10499658;28;20239;-79
2023/02/04 06:41:49;;;;;;;6.63;2.30;;;8.70;42.50;;;;;;10501224;28;20235;-79
2023/02/04 06:46:54;;;;;;;7.90;2.13;;;8.70;42.40;;;;;;10499626;28;20323;-79
2023/02/04 06:51:57;;;;;;;7.07;2.43;;;8.70;42.30;;;;;;10501917;28;20247;-78
2023/02/04 06:57:05;;;;;;;6.67;2.23;;;8.70;42.60;;;;;;10495273;28;20238;-78
2023/02/04 07:02:11;;;;;;;9.23;2.57;;;8.70;42.60;;;;;;10498227;28;20655;-78
2023/02/04 07:07:14;;;;;;;7.40;2.63;;;8.70;42.50;;;;;;10495304;28;20252;-78
2023/02/04 07:12:17;;;;;;;8.27;2.43;;;8.60;42.30;;;;;;10494876;28;20769;-78
2023/02/04 07:17:23;;;;;;;7.10;2.17;;;8.50;42.30;;;;;;10498788;28;20751;-78
2023/02/04 07:22:26;;;;;;;6.67;2.67;;;8.40;42.50;;;;;;10492933;28;20693;-78
2023/02/04 07:27:29;;;;;;;8.23;2.40;;;8.40;42.50;;;;;;10499607;28;20243;-79
2023/02/04 07:32:34;;;;;;;7.63;2.33;;;8.40;42.80;;;;;;10495673;28;20234;-79
2023/02/04 07:37:37;;;;;;;4.93;2.03;;;8.40;42.70;;;;;;10495934;28;20232;-78
2023/02/04 07:42:40;;;;;;;7.23;1.90;;;8.40;42.50;;;;;;10493139;28;20224;-78
2023/02/04 07:47:45;;;;;;;6.73;2.10;;;8.30;42.50;;;;;;10497830;28;20234;-79
2023/02/04 07:52:48;;;;;;;6.70;2.30;;;8.30;42.50;;;;;;10501755;28;20449;-78
2023/02/04 07:57:51;;;;;;;6.73;2.30;;;8.30;42.50;;;;;;10498574;28;20327;-79
2023/02/04 08:02:56;;;;;;;4.80;2.10;;;8.30;42.50;;;;;;10500489;28;20228;-78
2023/02/04 08:08:00;;;;;;;1.00;0.80;;;8.30;42.60;;;;;;10500863;28;20258;-79
2023/02/04 08:13:04;;;;;;;1.00;0.83;;;8.30;42.40;;;;;;10506948;28;20939;-79
2023/02/04 08:18:09;;;;;;;0.87;0.60;;;8.20;42.00;;;;;;10503245;28;20242;-79
2023/02/04 08:23:12;;;;;;;0.60;0.60;;;8.10;41.80;;;;;;10502480;28;20228;-79
2023/02/04 08:28:15;;;;;;;0.67;0.60;;;8.00;41.50;;;;;;10502590;28;20226;-79
2023/02/04 08:33:21;;;;;;;0.90;0.70;;;7.80;41.80;;;;;;10494780;28;20312;-80
2023/02/04 08:38:24;;;;;;;0.67;0.67;;;7.60;42.20;;;;;;10496925;28;20316;-80
2023/02/04 08:43:28;;;;;;;0.67;0.67;;;7.60;42.20;;;;;;10493062;28;20232;-79
2023/02/04 08:48:34;;;;;;;0.60;0.60;;;7.70;42.20;;;;;;10487634;28;20241;-79
2023/02/04 08:53:39;;;;;;;1.00;0.70;;;7.70;42.30;;;;;;10488670;28;20233;-80
2023/02/04 08:58:42;;;;;;;1.17;0.70;;;7.80;42.30;;;;;;10486113;28;20217;-79
2023/02/04 09:03:46;;;;;;;2.50;0.93;;;7.80;42.40;;;;;;10489221;28;20239;-79
2023/02/04 09:08:51;;;;;;;1.17;0.80;;;7.90;42.30;;;;;;10496189;28;20260;-80
2023/02/04 09:13:55;;;;;;;1.57;1.40;;;8.00;42.40;;;;;;10501201;28;20228;-79
2023/02/04 09:19:00;;;;;;;1.10;0.93;;;8.00;42.30;;;;;;10490800;28;20236;-79
2023/02/04 09:24:14;;;;;;;1.73;1.13;;;8.10;42.30;;;;;;10515708;28;20247;-78
2023/02/04 09:29:18;;;;;;;1.03;1.03;;;8.20;41.90;;;;;;10497826;28;20615;-78
2023/02/04 09:34:22;;;;;;;1.97;1.20;;;8.20;42.10;;;;;;10507360;28;20240;-79
2023/02/04 09:39:25;;;;;;;1.10;1.00;;;8.20;42.20;;;;;;10500081;28;20609;-79
2023/02/04 09:44:29;;;;;;;0.87;0.87;;;8.30;42.30;;;;;;10491983;28;20239;-79
2023/02/04 09:49:33;;;;;;;1.37;1.10;;;8.30;42.10;;;;;;10497066;28;20232;-79
2023/02/04 09:54:37;;;;;;;1.07;0.90;;;8.40;42.10;;;;;;10488625;28;20228;-78
2023/02/04 09:59:42;;;;;;;1.10;1.00;;;8.40;42.70;;;;;;10491144;28;20232;-78
2023/02/04 10:04:47;;;;;;;1.23;0.90;;;8.50;42.30;;;;;;10481741;28;20229;-78
2023/02/04 10:09:50;;;;;;;3.90;0.80;;;8.60;42.30;;;;;;10486051;28;20236;-72
2023/02/04 10:14:54;;;;;;;1.57;0.87;;;8.70;42.40;;;;;;10484152;28;20251;-72
2023/02/04 10:19:58;;;;;;;1.47;0.80;;;8.80;42.20;;;;;;10465852;28;20237;-72
2023/02/04 10:25:01;;;;;;;1.20;1.00;;;8.80;41.40;;;;;;10480190;28;20614;-71
2023/02/04 10:30:05;;;;;;;1.10;1.00;;;8.90;41.70;;;;;;10492737;28;20233;-71
2023/02/04 10:35:16;;;;;;;1.70;0.93;;;8.90;41.50;;;;;;10497327;28;20225;-71
2023/02/04 10:40:31;;;;;;;2.67;0.70;;;8.90;40.80;;;;;;10490805;28;20310;-71
2023/02/04 10:45:34;;;;;;;2.17;0.67;;;8.90;40.40;;;;;;10479757;28;20315;-69
2023/02/04 10:50:39;;;;;;;0.90;0.70;;;8.90;41.40;;;;;;10478770;28;20239;-72
2023/02/04 10:55:43;;;;;;;1.00;0.90;;;8.90;41.10;;;;;;10513235;28;20261;-80
2023/02/04 11:00:46;;;;;;;0.70;0.70;;;9.00;41.10;;;;;;10500054;28;20237;-80
2023/02/04 11:05:51;;;;;;;0.73;0.73;;;9.00;40.60;;;;;;10471184;28;20715;-80
2023/02/04 11:10:57;;;;;;;0.80;0.80;;;9.00;40.80;;;;;;10494258;28;20231;-79
2023/02/04 11:16:23;;;;;;;0.67;0.67;;;9.00;40.10;;;;;;10522747;28;20228;-79
2023/02/04 11:21:41;;;;;;;0.77;0.77;;;9.00;39.60;;;;;;10520249;28;20223;-79
2023/02/04 11:26:46;;;;;;;0.80;0.80;;;9.10;40.10;;;;;;10514144;28;20314;-79
2023/02/04 11:31:58;;;;;;;1.00;1.00;;;9.10;39.70;;;;;;10502345;28;20826;-79
2023/02/04 11:37:18;;;;;;;0.67;0.67;;;9.10;39.30;;;;;;10500371;28;20239;-79
2023/02/04 11:42:23;;;;;;;1.20;0.90;;;9.10;39.10;;;;;;10501522;28;20224;-79
2023/02/04 11:47:28;;;;;;;0.90;0.70;;;9.20;40.90;;;;;;10501241;28;20232;-79
2023/02/04 11:52:35;;;;;;;0.80;0.80;;;9.30;40.30;;;;;;10496676;28;20258;-79
2023/02/04 11:57:40;;;;;;;0.60;0.57;;;9.30;39.00;;;;;;10494518;28;20232;-78
2023/02/04 12:02:46;;;;;;;0.63;0.60;;;9.40;39.70;;;;;;10494971;28;20232;-77
2023/02/04 12:07:51;;;;;;;0.60;0.60;;;9.40;38.90;;;;;;10492641;28;20286;-78
2023/02/04 12:12:57;;;;;;;0.80;0.80;;;9.50;39.10;;;;;;10491788;28;20242;-79
2023/02/04 12:18:06;;;;;;;0.70;0.70;;;9.50;39.00;;;;;;10492798;28;20307;-80
2023/02/04 12:23:10;;;;;;;1.90;0.60;;;9.50;37.90;;;;;;10502050;28;20287;-79
2023/02/04 12:28:13;;;;;;;0.70;0.70;;;9.50;37.90;;;;;;10500335;28;20243;-78
2023/02/04 12:33:17;;;;;;;0.77;0.77;;;9.50;38.50;;;;;;10488482;28;20602;-77
2023/02/04 12:38:21;;;;;;;0.87;0.63;;;9.40;38.70;;;;;;10506876;28;20255;-79
2023/02/04 12:43:25;;;;;;;0.70;0.70;;;9.50;38.20;;;;;;10516364;28;20233;-78
2023/02/04 12:48:30;;;;;;;0.70;0.70;;;9.50;38.50;;;;;;10488497;28;20252;-78
2023/02/04 12:53:35;;;;;;;1.03;0.93;;;9.60;38.50;;;;;;10525089;28;20634;-79
2023/02/04 12:58:38;;;;;;;0.70;0.70;;;9.60;38.10;;;;;;10491107;28;20717;-80
2023/02/04 13:03:41;;;;;;;0.70;0.70;;;9.60;38.40;;;;;;10512355;28;20232;-79
2023/02/04 13:08:45;;;;;;;0.70;0.70;;;9.50;38.20;;;;;;10507620;28;20240;-80
2023/02/04 13:13:48;;;;;;;1.03;0.80;;;9.60;37.60;;;;;;10531154;28;20996;-80
2023/02/04 13:18:52;;;;;;;0.60;0.60;;;9.60;37.00;;;;;;10469183;28;20251;-81
2023/02/04 13:23:58;;;;;;;0.60;0.60;;;9.60;37.50;;;;;;10508261;28;20747;-81
2023/02/04 13:29:01;;;;;;;1.23;0.73;;;9.50;36.10;;;;;;10508085;28;20239;-81
2023/02/04 13:34:04;;;;;;;1.20;1.10;;;9.40;37.50;;;;;;10516492;28;20223;-81
2023/02/04 13:39:09;;;;;;;2.00;1.80;;;9.30;37.00;;;;;;10527539;28;20239;-81
2023/02/04 13:44:12;;;;;;;1.63;1.40;;;9.30;36.80;;;;;;10518782;28;20242;-80
2023/02/04 13:49:15;;;;;;;1.10;1.10;;;9.30;37.00;;;;;;10526226;28;20232;-81
2023/02/04 13:54:20;;;;;;;1.90;1.10;;;9.20;37.00;;;;;;10513247;28;20228;-81
2023/02/04 13:59:23;;;;;;;0.90;0.90;;;9.20;36.60;;;;;;10519353;28;20268;-81
2023/02/04 14:04:26;;;;;;;1.27;0.83;;;9.20;37.20;;;;;;10499750;28;20998;-80
2023/02/04 14:09:31;;;;;;;0.70;0.70;;;9.20;37.30;;;;;;10524276;28;20254;-80
2023/02/04 14:14:34;;;;;;;0.70;0.70;;;9.20;36.60;;;;;;10515760;28;20255;-81
2023/02/04 14:19:37;;;;;;;0.80;0.80;;;9.20;36.90;;;;;;10486485;28;20236;-78
2023/02/04 14:24:43;;;;;;;1.77;1.67;;;9.10;36.80;;;;;;10491055;28;20361;-78
2023/02/04 14:29:46;;;;;;;1.53;1.40;;;9.10;36.00;;;;;;10485053;28;20236;-77
2023/02/04 14:34:49;;;;;;;1.00;1.00;;;9.00;36.00;;;;;;10482103;28;21057;-76
2023/02/04 14:39:54;;;;;;;1.17;1.10;;;9.00;36.10;;;;;;10478568;28;20314;-76
2023/02/04 14:44:58;;;;;;;0.80;0.70;;;8.90;35.30;;;;;;10479705;28;20233;-78
2023/02/04 14:50:01;;;;;;;0.90;0.90;;;8.90;35.90;;;;;;10484296;28;20225;-78
2023/02/04 14:55:07;;;;;;;1.73;1.00;;;8.90;36.50;;;;;;10488740;28;20720;-77
2023/02/04 15:00:11;;;;;;;2.60;1.00;;;8.90;35.80;;;;;;10489965;28;20216;-78
2023/02/04 15:05:15;;;;;;;1.10;1.10;;;8.90;36.00;;;;;;10478157;28;20244;-76
2023/02/04 15:10:29;;;;;;;0.90;0.90;;;8.90;36.00;;;;;;10470344;28;20707;-77
2023/02/04 15:15:33;;;;;;;0.80;0.80;;;8.90;34.40;;;;;;10483088;22;20243;-70
2023/02/04 15:20:36;;;;;;;0.80;0.80;;;8.90;35.90;;;;;;10462722;28;20872;-69
2023/02/04 15:25:41;;;;;;;0.80;0.80;;;8.90;35.70;;;;;;10464360;28;20239;-69
2023/02/04 15:30:44;;;;;;;0.80;0.80;;;8.80;35.60;;;;;;10464903;28;20224;-71
2023/02/04 15:35:47;;;;;;;0.70;0.70;;;8.80;35.90;;;;;;10468186;28;20228;-70
2023/02/04 15:40:52;;;;;;;0.80;0.80;;;8.80;36.00;;;;;;10467853;28;20240;-71
2023/02/04 15:45:55;;;;;;;0.80;0.80;;;8.80;35.60;;;;;;10465804;28;20730;-71
2023/02/04 15:50:58;;;;;;;0.80;0.80;;;8.80;35.80;;;;;;10468420;28;20354;-71
2023/02/04 15:56:03;;;;;;;1.33;1.10;;;8.70;35.80;;;;;;10477099;28;20766;-70
2023/02/04 16:01:06;;;;;;;1.73;0.90;;;8.70;35.80;;;;;;10475926;28;20232;-70
2023/02/04 16:06:09;;;;;;;1.43;1.20;;;8.70;35.50;;;;;;10475700;28;20274;-70
2023/02/04 16:11:13;;;;;;;1.50;1.40;;;8.70;35.60;;;;;;10469990;28;20614;-70
2023/02/04 16:16:17;;;;;;;1.50;1.40;;;8.70;35.50;;;;;;10485488;28;20231;-69
2023/02/04 16:21:20;;;;;;;1.10;1.00;;;8.60;36.30;;;;;;10484026;28;20896;-73
2023/02/04 16:26:24;;;;;;;1.10;1.00;;;8.60;36.90;;;;;;10484822;28;20633;-70
2023/02/04 16:31:28;;;;;;;2.20;2.00;;;8.70;35.50;;;;;;10483852;28;20241;-70
2023/02/04 16:36:31;;;;;;;3.20;2.40;;;8.60;36.00;;;;;;10462153;28;20231;-69
2023/02/04 16:41:36;;;;;;;5.13;3.50;;;8.60;35.90;;;;;;10478340;28;20246;-76
2023/02/04 16:46:39;;;;;;;3.20;2.90;;;8.50;35.20;;;;;;10484242;28;20228;-69
2023/02/04 16:51:42;;;;;;;3.60;2.50;;;8.50;35.30;;;;;;10479768;28;20715;-70
2023/02/04 16:56:47;;;;;;;1.60;1.50;;;8.30;35.10;;;;;;10483400;28;20228;-69
2023/02/04 17:01:50;;;;;;;1.30;1.20;;;8.20;35.60;;;;;;10484191;28;20263;-69
2023/02/04 17:06:53;;;;;;;2.70;2.50;;;8.20;36.00;;;;;;10484603;28;20771;-69
2023/02/04 17:11:58;;;;;;;6.07;5.47;;;8.10;35.90;;;;;;10476122;28;20220;-69
2023/02/04 17:17:01;;;;;;;9.53;8.13;;;8.00;35.60;;;;;;10486269;28;20239;-69
2023/02/04 17:22:05;;;;;;;5.00;4.60;;;8.00;35.90;;;;;;10483869;28;20233;-69
2023/02/04 17:27:09;;;;;;;3.47;2.60;;;7.90;35.90;;;;;;10478229;28;20254;-69
2023/02/04 17:32:12;;;;;;;2.67;2.43;;;7.80;35.60;;;;;;10481711;28;20240;-69
2023/02/04 17:37:15;;;;;;;1.47;1.37;;;7.80;35.80;;;;;;10493393;28;20696;-69
2023/02/04 17:42:20;;;;;;;3.73;3.43;;;7.70;35.80;;;;;;10492791;28;20232;-68
2023/02/04 17:47:23;;;;;;;12.67;9.93;;;7.60;35.80;;;;;;10483686;28;20232;-68
2023/02/04 17:52:27;;;;;;;12.93;10.47;;;7.50;36.10;;;;;;10481864;28;20236;-68
2023/02/04 17:57:31;;;;;;;10.00;8.87;;;7.50;36.20;;;;;;10480910;28;20224;-68
2023/02/04 18:02:35;;;;;;;7.03;6.43;;;7.40;36.10;;;;;;10481183;28;20237;-68
2023/02/04 18:07:38;;;;;;;7.80;7.00;;;7.30;36.50;;;;;;10504217;28;20223;-69
2023/02/04 18:12:43;;;;;;;7.77;6.97;;;7.30;36.60;;;;;;10491634;28;20236;-69
2023/02/04 18:17:46;;;;;;;9.73;8.73;;;7.30;36.50;;;;;;10496579;28;20243;-69
2023/02/04 18:22:53;;;;;;;8.07;7.30;;;7.30;36.60;;;;;;10486956;28;20239;-69
2023/02/04 18:28:01;;;;;;;7.10;6.37;;;7.30;36.50;;;;;;10495600;28;20243;-69
2023/02/04 18:33:14;;;;;;;6.17;5.57;;;7.30;36.20;;;;;;10499169;28;20240;-70
2023/02/04 18:38:24;;;;;;;5.87;5.27;;;7.20;36.00;;;;;;10494221;28;20223;-69
2023/02/04 18:43:32;;;;;;;6.60;5.53;;;7.20;36.00;;;;;;10493571;28;20224;-69
2023/02/04 18:49:00;;;;;;;4.90;4.40;;;7.00;35.90;;;;;;10482459;28;20600;-69
2023/02/04 18:54:34;;;;;;;4.10;3.70;;;6.90;35.70;;;;;;10492081;28;20232;-70
2023/02/04 18:59:40;;;;;;;3.20;3.00;;;6.80;35.90;;;;;;10384426;28;20231;-70
2023/02/04 19:04:44;;;;;;;8.50;5.97;;;6.80;36.60;;;;;;10493412;28;20247;-70
2023/02/04 19:09:47;;;;;;;7.60;5.70;;;6.70;36.50;;;;;;10489197;28;20243;-70
2023/02/04 19:14:51;;;;;;;9.73;7.50;;;6.70;36.70;;;;;;10492034;28;20240;-71
2023/02/04 19:19:56;;;;;;;5.17;4.67;;;6.70;36.20;;;;;;10495568;28;20246;-71
2023/02/04 19:25:21;;;;;;;5.47;4.47;;;6.60;36.00;;;;;;10489694;28;20231;-71
2023/02/04 19:30:46;;;;;;;3.90;3.57;;;6.40;36.20;;;;;;10482107;28;20329;-72
2023/02/04 19:35:49;;;;;;;5.80;5.30;;;6.20;36.00;;;;;;10479170;28;20281;-71
2023/02/04 19:40:52;;;;;;;6.63;6.03;;;6.20;36.60;;;;;;10494658;28;20267;-72
2023/02/04 19:45:57;;;;;;;9.40;8.43;;;6.00;36.50;;;;;;10498851;28;20243;-72
2023/02/04 19:51:07;;;;;;;18.50;14.73;;;6.00;36.70;;;;;;10486219;28;20715;-72
2023/02/04 19:56:28;;;;;;;20.33;15.90;;;5.90;36.90;;;;;;10490806;28;20227;-71
2023/02/04 20:01:33;;;;;;;21.70;15.10;;;5.80;36.60;;;;;;10478822;28;20272;-71
2023/02/04 20:06:36;;;;;;;8.93;7.37;;;5.80;37.20;;;;;;10474729;28;20729;-71
2023/02/04 20:11:58;;;;;;;11.57;10.57;;;5.80;37.40;;;;;;10462717;28;20734;-71
2023/02/04 20:17:22;;;;;;;11.83;10.43;;;5.80;36.80;;;;;;10458631;28;20316;-71
2023/02/04 20:22:46;;;;;;;11.27;10.07;;;5.70;36.60;;;;;;10467211;28;20236;-71
2023/02/04 20:27:55;;;;;;;9.33;8.43;;;5.60;36.90;;;;;;10476276;28;20289;-71
2023/02/04 20:33:21;;;;;;;9.07;8.20;;;5.60;37.30;;;;;;10466729;28;20251;-70
2023/02/04 20:38:25;;;;;;;7.50;6.80;;;5.50;36.40;;;;;;10466785;28;20223;-71
2023/02/04 20:43:28;;;;;;;5.57;4.93;;;5.50;37.20;;;;;;10471319;28;20767;-71
2023/02/04 20:48:35;;;;;;;5.97;5.10;;;5.40;37.10;;;;;;10463076;28;20239;-71
2023/02/04 20:53:39;;;;;;;7.13;5.47;;;5.40;37.10;;;;;;10469898;28;20239;-72
2023/02/04 20:58:45;;;;;;;7.60;6.73;;;5.40;37.10;;;;;;10470457;28;20829;-71
2023/02/04 21:03:50;;;;;;;7.33;6.40;;;5.30;37.00;;;;;;10478004;28;20615;-71
2023/02/04 21:08:55;;;;;;;7.93;7.13;;;5.30;37.00;;;;;;10480101;28;20314;-71
2023/02/04 21:13:58;;;;;;;7.27;6.50;;;5.20;37.00;;;;;;10478318;28;20239;-71
2023/02/04 21:19:03;;;;;;;8.67;7.27;;;5.20;37.00;;;;;;10486737;28;20231;-72
2023/02/04 21:24:07;;;;;;;7.93;7.13;;;5.20;37.00;;;;;;10482538;28;20224;-72
2023/02/04 21:29:10;;;;;;;7.03;6.10;;;5.20;37.00;;;;;;10479742;28;20272;-71
2023/02/04 21:34:15;;;;;;;6.90;6.30;;;5.20;37.00;;;;;;10473149;28;21102;-71
2023/02/04 21:39:19;;;;;;;5.90;5.30;;;5.10;36.90;;;;;;10480659;28;20303;-71
2023/02/04 21:44:23;;;;;;;5.20;4.70;;;5.10;36.90;;;;;;10481961;28;20243;-71
2023/02/04 21:49:27;;;;;;;5.00;4.47;;;5.10;36.90;;;;;;10484082;28;20235;-71
2023/02/04 21:54:30;;;;;;;5.30;4.60;;;5.00;36.80;;;;;;10479469;28;20719;-71
2023/02/04 21:59:34;;;;;;;5.27;4.77;;;5.00;36.90;;;;;;10482094;28;20228;-71
2023/02/04 22:04:39;;;;;;;9.13;7.77;;;5.00;37.10;;;;;;10485140;28;20232;-71
2023/02/04 22:09:42;;;;;;;11.97;8.90;;;5.00;36.80;;;;;;10477061;28;20236;-74
2023/02/04 22:14:45;;;;;;;9.40;8.17;;;5.00;37.00;;;;;;10476613;28;20224;-74
2023/02/04 22:19:50;;;;;;;7.77;6.87;;;5.00;37.00;;;;;;10474136;28;20861;-74
2023/02/04 22:24:53;;;;;;;9.53;7.73;;;4.90;36.90;;;;;;10476577;28;20236;-74
2023/02/04 22:29:56;;;;;;;8.17;7.27;;;4.90;37.00;;;;;;10475082;28;20235;-73
2023/02/04 22:35:01;;;;;;;7.23;5.97;;;4.90;36.70;;;;;;10476100;28;20981;-74
2023/02/04 22:40:06;;;;;;;6.40;5.80;;;4.80;36.40;;;;;;10476476;28;20607;-74
2023/02/04 22:45:10;;;;;;;6.83;6.13;;;4.70;36.80;;;;;;10476571;28;20232;-73
2023/02/04 22:50:14;;;;;;;6.17;5.57;;;4.70;37.00;;;;;;10475002;28;20248;-74
2023/02/04 22:55:18;;;;;;;6.20;5.60;;;4.70;37.00;;;;;;10473521;28;20235;-74
2023/02/04 23:00:21;;;;;;;6.10;5.50;;;4.60;37.00;;;;;;10477029;28;20237;-74
2023/02/04 23:05:26;;;;;;;5.97;5.27;;;4.60;36.90;;;;;;10476224;28;20251;-74
2023/02/04 23:10:29;;;;;;;7.30;5.30;;;4.60;36.80;;;;;;10474524;28;20799;-74
2023/02/04 23:15:32;;;;;;;5.53;4.97;;;4.50;36.60;;;;;;10472180;28;20236;-74
2023/02/04 23:20:39;;;;;;;6.07;5.23;;;4.50;36.80;;;;;;10475897;28;20228;-74
2023/02/04 23:25:42;;;;;;;6.40;5.80;;;4.40;36.80;;;;;;10475719;28;20224;-74
2023/02/04 23:30:46;;;;;;;5.70;5.10;;;4.40;36.80;;;;;;10474154;28;20755;-74
2023/02/04 23:35:51;;;;;;;6.80;5.40;;;4.30;36.90;;;;;;10481947;28;20232;-74
2023/02/04 23:40:55;;;;;;;5.80;5.20;;;4.30;37.00;;;;;;10479398;28;20648;-74
2023/02/04 23:45:59;;;;;;;5.73;5.20;;;4.30;37.00;;;;;;10480897;28;20599;-74
2023/02/04 23:51:03;;;;;;;8.00;5.57;;;4.30;37.00;;;;;;10475933;28;20250;-73
2023/02/04 23:56:07;;;;;;;6.33;5.33;;;4.20;36.90;;;;;;10478238;28;20238;-73
